Time;durP1;ratioP1;P1;durP2;ratioP2;P2;SDS_P1;SDS_P2;PMS_P1;PMS_P2;Temp;Humidity;BMP_temperature;BMP_pressure;BME280_temperature;BME280_humidity;BME280_pressure;Samples;Min_cycle;Max_cycle;Signal;HPM_P1;HPM_P2
2022/03/03 00:02:03;;;;;;;72.47;38.47;;;;;;;9.83;100.00;99128.22;6198989;23;20063;-83
2022/03/03 00:04:29;;;;;;;73.53;37.80;;;;;;;9.86;100.00;99117.34;6171879;23;20016;-80
2022/03/03 00:06:59;;;;;;;67.32;36.60;;;;;;;9.85;100.00;99106.06;6197760;23;20016;-81
2022/03/03 00:09:24;;;;;;;77.50;39.60;;;;;;;9.92;100.00;99110.53;6193832;23;20005;-81
2022/03/03 00:11:50;;;;;;;73.72;39.75;;;;;;;10.02;100.00;99129.38;6166495;23;20064;-81
2022/03/03 00:14:18;;;;;;;69.28;38.03;;;;;;;10.00;100.00;99120.88;6162029;23;20012;-83
2022/03/03 00:16:44;;;;;;;83.22;41.42;;;;;;;9.85;100.00;99105.22;6188949;23;20013;-81
2022/03/03 00:19:09;;;;;;;78.00;40.42;;;;;;;9.95;100.00;99133.75;6138089;23;20032;-80
2022/03/03 00:21:35;;;;;;;80.85;41.38;;;;;;;9.85;100.00;99107.84;6191814;23;20055;-80
2022/03/03 00:24:01;;;;;;;86.38;44.65;;;;;;;9.96;100.00;99104.75;6187318;23;20013;-80
2022/03/03 00:26:26;;;;;;;85.30;42.83;;;;;;;9.85;100.00;99100.00;6161681;23;20064;-82
2022/03/03 00:28:52;;;;;;;82.15;43.08;;;;;;;9.81;100.00;99083.81;6161027;23;20017;-82
2022/03/03 00:31:18;;;;;;;75.95;39.63;;;;;;;10.12;100.00;99110.69;6187131;23;20020;-81
2022/03/03 00:33:44;;;;;;;81.53;41.15;;;;;;;10.13;100.00;99112.34;6187415;23;20091;-82
2022/03/03 00:36:10;;;;;;;89.35;44.80;;;;;;;9.86;100.00;99076.22;6160932;23;20013;-80
2022/03/03 00:38:36;;;;;;;86.95;45.17;;;;;;;9.79;100.00;99067.47;6188324;23;20084;-82
2022/03/03 00:41:03;;;;;;;88.22;45.92;;;;;;;10.02;100.00;99087.41;6188646;23;20340;-79
2022/03/03 00:43:28;;;;;;;86.30;44.13;;;;;;;10.14;100.00;99104.28;6138022;23;20021;-81
2022/03/03 00:45:54;;;;;;;84.20;43.00;;;;;;;10.09;100.00;99104.03;6189921;23;20068;-81
2022/03/03 00:48:19;;;;;;;89.53;47.40;;;;;;;9.83;100.00;99087.09;6136127;23;20017;-80
2022/03/03 00:50:46;;;;;;;85.28;46.33;;;;;;;9.84;100.00;99093.94;6187465;23;20016;-82
2022/03/03 00:53:11;;;;;;;89.35;47.40;;;;;;;9.75;100.00;99100.31;6161207;23;20288;-81
2022/03/03 00:55:41;;;;;;;93.03;49.25;;;;;;;9.65;100.00;99063.13;6160841;23;20012;-80
2022/03/03 00:58:06;;;;;;;97.35;48.67;;;;;;;9.75;100.00;99096.88;6136022;23;20116;-80
2022/03/03 01:00:32;;;;;;;96.80;50.03;;;;;;;9.70;100.00;99092.19;6160853;23;20013;-80
2022/03/03 01:02:58;;;;;;;87.53;46.42;;;;;;;9.62;100.00;99066.09;6136827;23;20017;-81
2022/03/03 01:05:24;;;;;;;99.63;52.78;;;;;;;9.52;100.00;99090.81;6188491;23;20013;-84
2022/03/03 01:07:49;;;;;;;94.05;49.72;;;;;;;9.39;100.00;99075.78;6194161;23;20092;-83
2022/03/03 01:10:15;;;;;;;88.47;48.03;;;;;;;9.48;100.00;99063.38;6187532;23;20005;-80
2022/03/03 01:12:41;;;;;;;98.78;50.53;;;;;;;9.61;100.00;99074.97;6187803;23;20032;-81
2022/03/03 01:15:10;;;;;;;91.95;49.72;;;;;;;9.60;100.00;99055.81;6189791;23;20017;-83
2022/03/03 01:17:35;;;;;;;95.05;51.22;;;;;;;9.63;100.00;99052.81;6164744;23;20009;-80
2022/03/03 01:20:01;;;;;;;93.65;51.22;;;;;;;9.62;100.00;99060.84;6198113;23;20037;-81
2022/03/03 01:22:28;;;;;;;87.97;46.45;;;;;;;9.79;100.00;99070.09;6169538;23;20104;-81
2022/03/03 01:24:53;;;;;;;91.68;48.15;;;;;;;9.64;100.00;99033.47;6169858;23;20009;-80
2022/03/03 01:27:19;;;;;;;105.40;54.63;;;;;;;9.54;100.00;99036.41;6195795;23;20009;-82
2022/03/03 01:29:45;;;;;;;97.63;50.22;;;;;;;9.75;100.00;99055.75;6169308;23;20051;-82
2022/03/03 01:32:11;;;;;;;107.45;53.22;;;;;;;9.58;100.00;99042.91;6192275;23;20439;-81
2022/03/03 01:34:38;;;;;;;104.93;53.67;;;;;;;9.47;100.00;99042.59;6186963;23;20108;-80
2022/03/03 01:37:04;;;;;;;103.10;53.67;;;;;;;9.23;100.00;99008.69;6186702;23;20070;-82
2022/03/03 01:39:30;;;;;;;100.65;51.97;;;;;;;9.42;100.00;99040.53;6159814;23;20317;-79
2022/03/03 01:41:57;;;;;;;103.10;53.17;;;;;;;9.25;100.00;99025.06;6160415;23;20041;-80
2022/03/03 01:44:23;;;;;;;108.32;56.28;;;;;;;9.11;100.00;99028.53;6160504;23;20013;-81
2022/03/03 01:46:56;;;;;;;102.00;51.90;;;;;;;9.46;100.00;99038.34;6186863;23;20063;-81
2022/03/03 01:49:24;;;;;;;104.03;56.25;;;;;;;9.39;100.00;99027.78;6186595;23;20103;-81
2022/03/03 01:51:50;;;;;;;97.57;50.53;;;;;;;9.41;100.00;99026.63;6160258;23;20163;-81
2022/03/03 01:54:16;;;;;;;102.38;52.55;;;;;;;9.50;100.00;99014.22;6186775;23;20132;-81
2022/03/03 01:56:44;;;;;;;104.38;53.15;;;;;;;9.17;100.00;98970.16;6186651;23;20012;-81
2022/03/03 01:59:10;;;;;;;96.90;50.30;;;;;;;9.45;100.00;98995.63;6160503;23;20101;-81
2022/03/03 02:01:37;;;;;;;100.75;53.45;;;;;;;9.60;100.00;99008.66;6160890;23;20036;-81
2022/03/03 02:04:07;;;;;;;94.90;50.88;;;;;;;9.50;100.00;98997.66;6186769;23;20067;-81
2022/03/03 02:06:34;;;;;;;105.32;54.20;;;;;;;9.23;100.00;98984.34;6186540;23;20023;-81
2022/03/03 02:09:03;;;;;;;106.13;52.17;;;;;;;9.39;100.00;99017.31;6187182;23;20020;-81
2022/03/03 02:11:50;;;;;;;102.40;52.72;;;;;;;9.20;100.00;98977.66;6129162;23;20017;-81
2022/03/03 02:14:18;;;;;;;105.57;54.20;;;;;;;9.20;100.00;98987.31;6160272;23;20016;-80
2022/03/03 02:21:37;;;;;;;95.25;49.22;;;;;;;9.49;100.00;98991.63;6038642;23;20086;-81
2022/03/03 02:24:05;;;;;;;112.88;56.35;;;;;;;9.49;100.00;98996.88;6095803;23;20025;-81
2022/03/03 02:26:32;;;;;;;99.45;52.88;;;;;;;9.46;100.00;98992.00;6136061;23;20032;-80
2022/03/03 02:28:58;;;;;;;108.88;55.67;;;;;;;9.48;100.00;98990.00;6186285;23;20431;-81
2022/03/03 02:31:24;;;;;;;105.18;54.78;;;;;;;9.41;100.00;98958.50;6159511;23;20009;-80
2022/03/03 02:33:50;;;;;;;104.57;54.33;;;;;;;9.36;100.00;98971.38;6186581;23;20009;-82
2022/03/03 02:36:17;;;;;;;98.93;52.95;;;;;;;9.41;100.00;98976.03;6134996;23;20339;-83
2022/03/03 02:38:44;;;;;;;101.97;53.38;;;;;;;9.27;100.00;98947.09;6161649;23;20363;-82
2022/03/03 02:41:09;;;;;;;101.47;53.95;;;;;;;9.47;100.00;98977.09;6162617;23;20017;-81
2022/03/03 02:43:35;;;;;;;99.93;52.20;;;;;;;9.50;100.00;98974.91;6138120;23;20017;-82
2022/03/03 02:46:02;;;;;;;99.18;52.00;;;;;;;9.29;100.00;98933.81;6190113;23;20016;-81
2022/03/03 02:48:28;;;;;;;102.20;53.70;;;;;;;9.27;100.00;98941.03;6189309;23;20395;-79
2022/03/03 02:50:54;;;;;;;97.55;53.00;;;;;;;9.26;100.00;98929.78;6190745;23;20009;-80
2022/03/03 02:53:19;;;;;;;107.63;55.58;;;;;;;9.42;100.00;98960.13;6167759;23;20088;-79
2022/03/03 02:55:47;;;;;;;105.80;53.95;;;;;;;9.31;100.00;98947.53;6167711;23;20017;-82
2022/03/03 02:58:13;;;;;;;99.85;51.47;;;;;;;9.19;100.00;98936.75;6163674;23;20120;-82
2022/03/03 03:00:42;;;;;;;108.18;55.70;;;;;;;9.32;100.00;98935.25;6162514;23;20115;-80
2022/03/03 03:03:09;;;;;;;108.05;55.05;;;;;;;9.49;100.00;98954.94;6188655;23;20015;-82
2022/03/03 03:05:35;;;;;;;105.55;54.55;;;;;;;9.38;100.00;98944.97;6188079;23;20037;-79
2022/03/03 03:08:00;;;;;;;107.32;56.67;;;;;;;9.17;100.00;98933.50;6187722;23;20013;-80
2022/03/03 03:10:26;;;;;;;111.10;58.67;;;;;;;9.33;100.00;98960.44;6124879;23;20064;-82
2022/03/03 03:12:51;;;;;;;113.50;57.63;;;;;;;9.26;100.00;98945.50;6187670;23;20013;-82
2022/03/03 03:15:18;;;;;;;105.10;58.60;;;;;;;9.14;100.00;98939.13;6164786;23;20013;-81
2022/03/03 03:17:44;;;;;;;120.30;60.65;;;;;;;9.05;100.00;98933.19;6204317;23;20008;-81
2022/03/03 03:20:10;;;;;;;117.40;60.25;;;;;;;9.12;100.00;98948.97;6173806;23;20013;-82
2022/03/03 03:22:36;;;;;;;115.53;59.33;;;;;;;9.17;100.00;98920.41;6197364;23;20016;-80
2022/03/03 03:25:05;;;;;;;111.43;59.20;;;;;;;9.10;100.00;98915.13;6162317;23;20023;-80
2022/03/03 03:27:31;;;;;;;117.65;59.65;;;;;;;9.24;100.00;98934.41;6193308;23;20060;-80
2022/03/03 03:29:57;;;;;;;111.20;57.50;;;;;;;9.20;100.00;98942.81;6188708;23;20005;-80
2022/03/03 03:32:23;;;;;;;111.03;56.53;;;;;;;9.27;100.00;98939.25;6188998;23;20035;-81
2022/03/03 03:34:49;;;;;;;116.22;57.53;;;;;;;9.48;100.00;98942.84;6188522;23;20360;-81
2022/03/03 03:37:15;;;;;;;107.88;57.20;;;;;;;9.50;100.00;98930.38;6137638;23;20013;-81
2022/03/03 03:39:42;;;;;;;107.43;58.08;;;;;;;9.39;100.00;98913.34;6188243;23;20009;-81
2022/03/03 03:42:08;;;;;;;107.82;57.67;;;;;;;9.47;100.00;98943.84;6187890;23;20013;-81
2022/03/03 03:44:35;;;;;;;109.65;56.80;;;;;;;9.33;100.00;98939.50;6188296;23;20360;-80
2022/03/03 03:47:01;;;;;;;109.25;56.03;;;;;;;9.37;100.00;98941.56;6164882;23;20013;-80
2022/03/03 03:49:27;;;;;;;106.93;56.78;;;;;;;9.36;100.00;98939.94;6139231;23;20013;-81
2022/03/03 03:51:53;;;;;;;104.30;54.03;;;;;;;9.33;100.00;98934.25;6163565;23;20028;-81
2022/03/03 03:54:19;;;;;;;116.35;60.25;;;;;;;9.35;100.00;98940.09;6164239;23;20020;-82
2022/03/03 03:56:45;;;;;;;113.63;58.28;;;;;;;9.03;100.00;98895.09;6148104;23;20013;-80
2022/03/03 03:59:10;;;;;;;108.35;58.38;;;;;;;9.41;100.00;98941.97;6162113;23;20318;-80
2022/03/03 04:01:36;;;;;;;108.53;55.88;;;;;;;9.44;100.00;98949.47;6161682;23;20031;-80
2022/03/03 04:04:04;;;;;;;112.45;59.28;;;;;;;9.33;100.00;98924.56;6163046;23;20020;-79
2022/03/03 04:06:32;;;;;;;109.63;57.20;;;;;;;9.52;100.00;98938.00;6163152;23;20056;-81
2022/03/03 04:08:58;;;;;;;104.95;56.13;;;;;;;9.37;100.00;98917.16;6187599;23;20037;-81
2022/03/03 04:11:24;;;;;;;111.75;57.75;;;;;;;9.53;100.00;98932.59;6188090;23;20005;-80
2022/03/03 04:13:50;;;;;;;104.25;56.20;;;;;;;9.50;100.00;98917.25;6188001;23;20012;-81
2022/03/03 04:16:15;;;;;;;104.43;55.97;;;;;;;9.49;100.00;98909.59;6187343;23;20091;-79
2022/03/03 04:18:41;;;;;;;105.82;55.83;;;;;;;9.58;100.00;98927.59;6162110;23;20044;-79
2022/03/03 04:21:07;;;;;;;108.75;58.58;;;;;;;9.52;100.00;98915.25;6187964;23;20036;-81
2022/03/03 04:23:32;;;;;;;105.00;57.25;;;;;;;9.46;100.00;98908.16;6187301;23;20342;-80
2022/03/03 04:25:58;;;;;;;108.78;57.90;;;;;;;9.32;100.00;98880.25;6187653;23;20015;-80
2022/03/03 04:28:24;;;;;;;109.13;57.22;;;;;;;9.43;100.00;98901.50;6187299;23;20342;-81
2022/03/03 04:30:50;;;;;;;108.00;59.00;;;;;;;9.36;100.00;98886.72;6187546;23;20431;-81
2022/03/03 04:33:16;;;;;;;108.28;59.05;;;;;;;9.62;100.00;98895.75;6186921;23;20013;-79
2022/03/03 04:35:42;;;;;;;115.97;56.78;;;;;;;9.53;100.00;98884.59;6186968;23;20463;-81
2022/03/03 04:38:07;;;;;;;116.00;58.92;;;;;;;9.31;100.00;98896.97;6187329;23;20408;-80
2022/03/03 04:40:32;;;;;;;111.57;57.22;;;;;;;9.35;100.00;98890.34;6187396;23;20013;-80
2022/03/03 04:42:58;;;;;;;107.00;58.33;;;;;;;9.16;100.00;98871.66;6161032;23;20009;-79
2022/03/03 04:45:24;;;;;;;109.97;58.72;;;;;;;9.48;100.00;98879.97;6164168;23;20005;-80
2022/03/03 04:47:49;;;;;;;117.43;61.60;;;;;;;9.56;100.00;98882.44;6192526;23;20044;-80
2022/03/03 04:50:15;;;;;;;115.25;61.05;;;;;;;9.63;100.00;98900.00;6192155;23;20387;-80
2022/03/03 04:52:41;;;;;;;117.82;61.33;;;;;;;9.44;100.00;98897.06;6192538;23;20436;-82
2022/03/03 04:55:07;;;;;;;119.30;63.05;;;;;;;9.41;100.00;98889.56;6191417;23;20437;-82
2022/03/03 04:57:34;;;;;;;119.05;62.60;;;;;;;9.57;100.00;98893.72;6190963;23;20023;-82
2022/03/03 05:00:00;;;;;;;115.40;60.53;;;;;;;9.55;100.00;98886.06;6138754;23;20017;-82
2022/03/03 05:02:26;;;;;;;111.57;58.97;;;;;;;9.35;100.00;98906.88;6163573;23;20317;-81
2022/03/03 05:04:53;;;;;;;118.53;63.95;;;;;;;9.23;100.00;98903.94;6190079;23;20013;-81
2022/03/03 05:07:19;;;;;;;112.95;60.72;;;;;;;9.25;100.00;98906.38;6186598;23;20009;-80
2022/03/03 05:09:44;;;;;;;112.80;61.15;;;;;;;9.18;100.00;98890.59;6159912;23;20009;-79
2022/03/03 05:12:10;;;;;;;113.53;60.17;;;;;;;9.24;100.00;98891.66;6186631;23;20436;-80
2022/03/03 05:14:36;;;;;;;114.28;59.80;;;;;;;9.20;100.00;98883.38;6135898;23;20041;-79
2022/03/03 05:17:02;;;;;;;108.32;59.42;;;;;;;9.15;100.00;98875.28;6160321;23;20051;-80
2022/03/03 05:19:27;;;;;;;111.68;59.38;;;;;;;9.25;100.00;98882.81;6160382;23;20020;-80
2022/03/03 05:21:53;;;;;;;111.35;59.42;;;;;;;9.32;100.00;98888.09;6187090;23;20013;-80
2022/03/03 05:24:19;;;;;;;114.43;59.80;;;;;;;9.17;100.00;98868.03;6189624;23;20040;-80
2022/03/03 05:26:45;;;;;;;112.72;60.55;;;;;;;9.44;100.00;98891.84;6160566;23;20013;-80
2022/03/03 05:29:10;;;;;;;111.82;61.25;;;;;;;9.34;100.00;98883.47;6160492;23;20072;-81
2022/03/03 05:31:36;;;;;;;115.97;62.40;;;;;;;9.28;100.00;98872.78;6186911;23;20019;-81
2022/03/03 05:34:03;;;;;;;114.18;61.40;;;;;;;9.40;100.00;98896.63;6187124;23;20016;-80
2022/03/03 05:36:29;;;;;;;112.53;62.05;;;;;;;9.40;100.00;98890.56;6186781;23;20095;-80
2022/03/03 05:38:57;;;;;;;108.30;58.20;;;;;;;9.42;100.00;98885.94;6186880;23;20021;-80
2022/03/03 05:41:23;;;;;;;114.53;61.35;;;;;;;9.33;100.00;98881.88;6187624;23;20013;-79
2022/03/03 05:43:48;;;;;;;117.25;63.70;;;;;;;9.39;100.00;98887.16;6164792;23;20017;-80
2022/03/03 05:46:15;;;;;;;118.07;62.17;;;;;;;9.46;100.00;98902.94;6189996;23;20470;-79
2022/03/03 05:48:41;;;;;;;114.65;62.22;;;;;;;9.33;100.00;98890.50;6162250;23;20324;-81
2022/03/03 05:51:06;;;;;;;113.07;58.65;;;;;;;9.49;100.00;98902.53;6188437;23;20009;-80
2022/03/03 05:53:32;;;;;;;113.72;60.38;;;;;;;9.50;100.00;98898.91;6161201;23;20072;-80
2022/03/03 05:55:59;;;;;;;119.07;62.33;;;;;;;9.64;100.00;98901.63;6186763;23;20015;-79
2022/03/03 05:58:41;;;;;;;115.03;61.97;;;;;;;9.46;100.00;98895.06;6186683;23;20013;-81
2022/03/03 06:01:09;;;;;;;117.85;61.47;;;;;;;9.44;100.00;98894.44;6186545;23;20573;-80
2022/03/03 06:03:35;;;;;;;114.28;59.63;;;;;;;9.78;100.00;98895.47;6135917;23;20337;-81
2022/03/03 06:06:08;;;;;;;121.18;64.35;;;;;;;9.50;100.00;98898.09;6160887;23;20079;-82
2022/03/03 06:08:51;;;;;;;117.95;61.63;;;;;;;9.29;100.00;98866.53;6187344;23;20088;-81
2022/03/03 06:11:20;;;;;;;119.88;62.95;;;;;;;9.46;100.00;98887.22;6187337;23;20043;-80
2022/03/03 06:13:47;;;;;;;117.82;62.75;;;;;;;9.46;100.00;98884.59;6160342;23;20005;-79
2022/03/03 06:16:20;;;;;;;112.50;60.85;;;;;;;9.55;100.00;98901.78;6186566;23;20056;-80
2022/03/03 06:18:48;;;;;;;125.20;63.30;;;;;;;9.58;100.00;98890.91;6136137;23;20067;-80
2022/03/03 06:21:15;;;;;;;117.20;64.05;;;;;;;9.65;100.00;98900.63;6135461;23;20024;-79
2022/03/03 06:23:41;;;;;;;117.80;64.15;;;;;;;9.62;100.00;98890.50;6186207;23;20013;-79
2022/03/03 06:26:10;;;;;;;127.32;66.05;;;;;;;9.54;100.00;98897.53;6188399;23;20403;-79
2022/03/03 06:28:36;;;;;;;117.93;64.20;;;;;;;9.78;100.00;98877.09;6194866;23;20060;-79
2022/03/03 06:31:04;;;;;;;117.88;63.47;;;;;;;9.96;100.00;98886.28;6191716;23;20365;-79
2022/03/03 06:33:30;;;;;;;116.20;64.13;;;;;;;9.60;100.00;98897.75;6187407;23;20059;-79
2022/03/03 06:35:56;;;;;;;118.72;62.67;;;;;;;9.57;100.00;98904.22;6161159;23;20440;-79
2022/03/03 06:38:22;;;;;;;120.55;63.45;;;;;;;9.66;100.00;98899.63;6137044;23;20023;-81
2022/03/03 06:40:48;;;;;;;116.72;63.25;;;;;;;9.65;100.00;98900.63;6162084;23;20060;-80
2022/03/03 06:43:14;;;;;;;115.35;62.58;;;;;;;9.69;100.00;98894.00;6166714;23;20017;-81
2022/03/03 06:45:39;;;;;;;115.43;62.67;;;;;;;9.72;100.00;98885.75;6169137;23;20017;-81
2022/03/03 06:48:06;;;;;;;120.68;65.43;;;;;;;9.53;100.00;98859.22;6166984;23;20041;-82
2022/03/03 06:50:37;;;;;;;120.40;64.43;;;;;;;9.48;100.00;98885.22;6143849;23;20024;-80
2022/03/03 06:53:04;;;;;;;108.97;60.72;;;;;;;9.85;100.00;98904.19;6192535;23;20016;-79
2022/03/03 06:55:31;;;;;;;112.55;63.33;;;;;;;9.85;100.00;98913.84;6161776;23;20020;-81
2022/03/03 06:57:58;;;;;;;121.85;64.47;;;;;;;10.10;100.00;98924.69;6165023;23;20459;-81
2022/03/03 07:00:26;;;;;;;124.22;66.38;;;;;;;10.20;100.00;98907.78;6186255;23;20459;-81
2022/03/03 07:02:52;;;;;;;117.75;65.75;;;;;;;10.15;100.00;98895.25;6187257;23;20016;-83
2022/03/03 07:05:22;;;;;;;124.38;66.03;;;;;;;10.22;100.00;98901.34;6187162;23;20017;-83
2022/03/03 07:07:52;;;;;;;118.18;64.60;;;;;;;10.14;100.00;98909.38;6168652;23;20013;-82
2022/03/03 07:10:23;;;;;;;119.47;64.28;;;;;;;10.10;100.00;98902.88;6163933;23;20321;-82
2022/03/03 07:12:52;;;;;;;120.78;64.60;;;;;;;10.10;100.00;98906.34;6137769;23;20017;-82
2022/03/03 07:15:18;;;;;;;118.32;66.32;;;;;;;10.41;100.00;98897.19;6185959;23;20404;-85
2022/03/03 07:17:49;;;;;;;123.50;66.35;;;;;;;10.52;100.00;98898.47;6187594;23;20009;-86
2022/03/03 07:20:24;;;;;;;118.40;67.03;;;;;;;10.52;100.00;98906.34;6188455;23;20017;-86
2022/03/03 07:23:05;;;;;;;121.38;68.82;;;;;;;10.57;100.00;98897.84;6163673;23;20013;-86
2022/03/03 07:25:39;;;;;;;117.03;65.90;;;;;;;10.65;100.00;98904.72;6142613;23;20051;-86
2022/03/03 07:28:10;;;;;;;128.98;68.43;;;;;;;10.54;100.00;98874.63;6167190;23;20012;-83
2022/03/03 07:30:43;;;;;;;115.28;64.43;;;;;;;10.74;100.00;98902.72;6137667;23;20001;-85
2022/03/03 07:33:18;;;;;;;117.87;66.37;;;;;;;10.85;100.00;98899.53;6162654;23;20436;-84
2022/03/03 07:35:47;;;;;;;115.25;63.00;;;;;;;10.82;100.00;98894.69;6190320;23;20392;-84
2022/03/03 07:38:19;;;;;;;117.00;65.25;;;;;;;10.93;100.00;98906.41;6170566;23;20336;-84
2022/03/03 07:40:46;;;;;;;113.22;64.32;;;;;;;10.91;100.00;98898.72;6123618;23;20099;-84
2022/03/03 07:43:14;;;;;;;115.95;65.85;;;;;;;10.98;100.00;98899.53;6145368;23;20418;-83
2022/03/03 07:45:40;;;;;;;119.95;67.18;;;;;;;10.98;100.00;98893.50;6194491;23;20424;-84
2022/03/03 07:48:06;;;;;;;110.68;63.60;;;;;;;10.97;100.00;98892.66;6194444;23;20463;-84
2022/03/03 07:50:39;;;;;;;116.28;64.57;;;;;;;10.99;100.00;98882.75;6165722;23;20009;-83
2022/03/03 07:53:10;;;;;;;116.25;66.07;;;;;;;10.90;100.00;98905.00;6164671;23;19998;-84
2022/03/03 07:55:43;;;;;;;115.57;68.60;;;;;;;11.19;100.00;98900.34;6164206;23;20128;-83
2022/03/03 07:58:14;;;;;;;117.87;67.57;;;;;;;10.85;100.00;98889.03;6139450;23;20009;-84
2022/03/03 08:00:46;;;;;;;115.57;67.60;;;;;;;10.87;100.00;98871.25;6163041;23;20269;-82
2022/03/03 08:03:17;;;;;;;115.80;66.68;;;;;;;11.23;100.00;98885.00;6136825;23;20016;-82
2022/03/03 08:05:45;;;;;;;114.10;65.47;;;;;;;11.19;100.00;98899.56;6136009;23;20036;-82
2022/03/03 08:08:15;;;;;;;113.82;65.03;;;;;;;11.17;100.00;98865.59;6160344;23;20092;-82
2022/03/03 08:10:42;;;;;;;114.00;66.50;;;;;;;11.14;100.00;98894.91;6186028;23;20427;-81
2022/03/03 08:13:11;;;;;;;114.28;67.97;;;;;;;11.29;100.00;98903.41;6186640;23;20013;-84
2022/03/03 08:15:40;;;;;;;114.75;67.05;;;;;;;10.96;100.00;98890.25;6136230;23;20013;-83
2022/03/03 08:18:07;;;;;;;109.03;64.35;;;;;;;11.51;100.00;98897.94;6161290;23;20019;-82
2022/03/03 08:20:34;;;;;;;117.97;67.88;;;;;;;11.31;100.00;98903.22;6136443;23;20016;-83
2022/03/03 08:23:01;;;;;;;116.78;67.93;;;;;;;11.34;100.00;98901.97;6188197;23;20013;-82
2022/03/03 08:25:27;;;;;;;120.78;69.38;;;;;;;11.45;100.00;98890.88;6162658;23;20097;-83
2022/03/03 08:27:54;;;;;;;113.40;68.32;;;;;;;11.58;100.00;98890.03;6166440;23;20071;-84
2022/03/03 08:30:21;;;;;;;111.25;63.65;;;;;;;11.71;100.00;98897.09;6189441;23;20348;-85
2022/03/03 08:33:18;;;;;;;110.53;67.40;;;;;;;12.02;100.00;98906.16;6139716;23;20012;-86
2022/03/03 08:35:54;;;;;;;106.95;65.78;;;;;;;12.26;100.00;98903.84;6154278;23;20021;-86
2022/03/03 08:38:34;;;;;;;108.13;64.25;;;;;;;12.62;100.00;98902.47;6163401;23;20021;-85
2022/03/03 08:41:00;;;;;;;103.68;63.25;;;;;;;12.86;100.00;98892.97;6165932;23;20009;-86
2022/03/03 08:43:28;;;;;;;105.78;65.35;;;;;;;12.76;100.00;98910.28;6141997;23;20439;-87
2022/03/03 08:46:02;;;;;;;98.30;61.13;;;;;;;12.77;100.00;98906.63;6166440;23;20019;-87
2022/03/03 08:48:31;;;;;;;101.95;62.97;;;;;;;12.41;100.00;98875.44;6141633;23;20080;-86
2022/03/03 08:50:58;;;;;;;106.47;64.05;;;;;;;12.23;100.00;98888.47;6166196;23;20005;-85
2022/03/03 08:53:24;;;;;;;107.95;65.13;;;;;;;12.08;100.00;98884.28;6163585;23;20104;-85
2022/03/03 08:55:51;;;;;;;109.95;65.70;;;;;;;11.98;100.00;98892.56;6140802;23;20009;-87
2022/03/03 08:58:16;;;;;;;107.60;63.38;;;;;;;11.83;100.00;98892.81;6141187;23;20020;-85
2022/03/03 09:00:43;;;;;;;104.45;63.80;;;;;;;11.84;100.00;98909.41;6191628;23;20436;-85
2022/03/03 09:03:08;;;;;;;104.18;63.00;;;;;;;12.09;100.00;98906.16;6190767;23;20016;-85
2022/03/03 09:05:34;;;;;;;112.53;68.35;;;;;;;12.27;100.00;98910.72;6164639;23;20009;-83
2022/03/03 09:08:00;;;;;;;101.95;61.42;;;;;;;11.62;100.00;98924.63;6138358;23;20013;-82
2022/03/03 09:10:26;;;;;;;105.57;64.25;;;;;;;11.46;100.00;98920.56;6160862;23;20013;-83
2022/03/03 09:12:52;;;;;;;110.72;65.32;;;;;;;11.31;100.00;98910.28;6189084;23;20020;-85
2022/03/03 09:15:18;;;;;;;112.70;66.05;;;;;;;11.37;100.00;98927.84;6188277;23;20391;-86
2022/03/03 09:17:44;;;;;;;108.32;65.70;;;;;;;11.46;100.00;98921.41;6187770;23;20017;-84
2022/03/03 09:20:13;;;;;;;112.82;66.82;;;;;;;11.62;100.00;98924.63;6160981;23;20064;-84
2022/03/03 09:22:40;;;;;;;114.45;65.80;;;;;;;11.68;100.00;98921.16;6187900;23;20009;-84
2022/03/03 09:25:07;;;;;;;108.05;65.82;;;;;;;11.74;100.00;98930.84;6160824;23;20009;-83
2022/03/03 09:27:33;;;;;;;110.57;64.80;;;;;;;11.77;100.00;98922.56;6188160;23;20043;-81
2022/03/03 09:29:58;;;;;;;111.78;65.97;;;;;;;11.49;100.00;98894.69;6160822;23;20009;-82
2022/03/03 09:32:24;;;;;;;109.18;65.72;;;;;;;11.69;100.00;98928.88;6136237;23;20095;-81
2022/03/03 09:34:50;;;;;;;122.00;69.35;;;;;;;11.57;100.00;98912.88;6192317;23;20436;-86
2022/03/03 09:37:39;;;;;;;113.55;67.15;;;;;;;11.45;100.00;98906.63;6141012;23;20023;-84
2022/03/03 09:40:12;;;;;;;111.72;66.72;;;;;;;11.35;100.00;98890.44;6142883;23;20503;-83
2022/03/03 09:42:38;;;;;;;112.57;64.80;;;;;;;11.51;100.00;98913.69;6140114;23;20355;-84
2022/03/03 09:45:06;;;;;;;114.90;66.93;;;;;;;11.39;100.00;98899.53;6190471;23;20013;-84
2022/03/03 09:47:37;;;;;;;111.07;65.60;;;;;;;11.52;100.00;98914.53;6138547;23;20099;-87
2022/03/03 09:50:06;;;;;;;109.38;66.03;;;;;;;11.55;100.00;98920.16;6163890;23;20351;-86
2022/03/03 09:52:32;;;;;;;108.07;64.97;;;;;;;11.71;100.00;98912.88;6187136;23;20013;-83
2022/03/03 09:54:58;;;;;;;106.95;63.35;;;;;;;11.55;100.00;98917.53;6186036;23;20013;-86
2022/03/03 09:57:24;;;;;;;110.40;66.25;;;;;;;11.92;100.00;98918.91;6162268;23;20045;-85
2022/03/03 09:59:52;;;;;;;105.47;65.15;;;;;;;13.00;100.00;98924.50;6162258;23;20021;-86
2022/03/03 10:02:18;;;;;;;107.20;64.55;;;;;;;13.17;100.00;98903.72;6188405;23;20017;-85
2022/03/03 10:04:47;;;;;;;113.00;66.05;;;;;;;13.16;100.00;98891.56;6169171;23;20019;-86
2022/03/03 10:07:24;;;;;;;108.82;64.00;;;;;;;11.91;100.00;98880.47;6145466;23;20059;-84
2022/03/03 10:10:00;;;;;;;105.45;63.38;;;;;;;12.79;100.00;98931.72;6167317;23;20001;-85
2022/03/03 10:12:30;;;;;;;107.90;65.18;;;;;;;12.70;100.00;98911.94;6143129;23;20507;-84
2022/03/03 10:14:57;;;;;;;103.07;64.10;;;;;;;12.80;100.00;98911.47;6140063;23;20009;-83
2022/03/03 10:17:37;;;;;;;105.18;63.83;;;;;;;12.91;100.00;98902.88;6139299;23;20043;-87
2022/03/03 10:20:05;;;;;;;109.20;63.25;;;;;;;12.90;100.00;98924.97;6142231;23;20080;-85
2022/03/03 10:22:59;;;;;;;107.07;65.25;;;;;;;12.74;100.00;98910.50;6171584;23;20036;-89
2022/03/03 10:25:35;;;;;;;110.65;65.15;;;;;;;12.64;100.00;98902.25;6147985;23;20016;-88
2022/03/03 10:28:30;;;;;;;108.13;63.33;;;;;;;11.76;100.00;98936.72;6169694;23;20013;-86
2022/03/03 10:31:00;;;;;;;114.70;65.63;;;;;;;11.64;100.00;98936.53;6193279;23;20009;-84
2022/03/03 10:33:34;;;;;;;108.03;63.92;;;;;;;11.70;100.00;98930.47;6167931;23;20093;-85
2022/03/03 10:36:08;;;;;;;111.35;65.80;;;;;;;11.71;100.00;98911.06;6146739;23;20021;-86
2022/03/03 10:38:48;;;;;;;108.20;64.78;;;;;;;11.68;100.00;98890.41;6167351;23;20091;-86
2022/03/03 10:41:32;;;;;;;110.57;65.13;;;;;;;12.22;100.00;98931.59;6169651;23;20013;-87
2022/03/03 10:44:01;;;;;;;108.85;66.07;;;;;;;12.32;100.00;98913.53;6193232;23;20096;-87
2022/03/03 10:46:28;;;;;;;114.18;69.15;;;;;;;12.46;100.00;98903.75;6188266;23;20013;-85
2022/03/03 10:48:53;;;;;;;108.95;66.63;;;;;;;12.10;100.00;98926.97;6137970;23;20052;-87
2022/03/03 10:51:21;;;;;;;107.57;65.32;;;;;;;12.11;100.00;98912.78;6188409;23;20440;-87
2022/03/03 10:53:46;;;;;;;115.88;68.70;;;;;;;12.18;100.00;98906.69;6188950;23;20454;-87
2022/03/03 10:56:18;;;;;;;111.75;68.22;;;;;;;12.54;100.00;98934.28;6164942;23;20013;-86
2022/03/03 10:58:57;;;;;;;104.75;65.45;;;;;;;12.89;100.00;98917.31;6165197;23;20013;-86
2022/03/03 11:01:30;;;;;;;116.18;69.88;;;;;;;13.06;100.00;98930.75;6163873;23;20016;-87
2022/03/03 11:03:57;;;;;;;109.40;66.93;;;;;;;12.76;100.00;98915.53;6191757;23;20028;-86
2022/03/03 11:06:28;;;;;;;106.68;66.65;;;;;;;12.99;100.00;98934.25;6190243;23;20451;-85
2022/03/03 11:09:05;;;;;;;101.50;64.18;;;;;;;12.74;100.00;98899.97;6165510;23;20017;-85
2022/03/03 11:11:30;;;;;;;112.80;67.47;;;;;;;12.67;100.00;98910.53;6190497;23;20479;-86
2022/03/03 11:13:56;;;;;;;104.03;64.97;;;;;;;12.65;100.00;98936.28;6165359;23;20015;-85
2022/03/03 11:16:25;;;;;;;106.70;67.10;;;;;;;12.31;100.00;98914.53;6192651;23;20013;-87